createdAt,value
2022-12-16T00:01:53.708Z,6.63
2022-12-16T00:04:23.482Z,8.60
2022-12-16T00:06:52.096Z,10.98
2022-12-16T00:09:21.366Z,5.82
2022-12-16T00:11:49.952Z,4.82
2022-12-16T00:14:18.587Z,7.18
2022-12-16T00:16:47.149Z,10.50
2022-12-16T00:19:17.084Z,8.82
2022-12-16T00:21:45.162Z,8.98
2022-12-16T00:24:13.472Z,5.15
2022-12-16T00:26:41.572Z,7.60
2022-12-16T00:29:11.483Z,9.68
2022-12-16T00:31:40.407Z,8.43
2022-12-16T00:34:08.504Z,4.63
2022-12-16T00:36:38.223Z,7.95
2022-12-16T00:39:06.492Z,5.53
2022-12-16T00:41:34.782Z,9.55
2022-12-16T00:44:03.176Z,4.30
2022-12-16T00:46:31.751Z,8.52
2022-12-16T00:49:00.182Z,6.07
2022-12-16T00:51:28.393Z,7.05
2022-12-16T00:53:58.410Z,8.55
2022-12-16T00:56:26.603Z,10.27
2022-12-16T00:58:54.884Z,7.90
2022-12-16T01:01:23.558Z,7.40
2022-12-16T01:03:51.850Z,7.57
2022-12-16T01:06:20.712Z,6.90
2022-12-16T01:08:49.145Z,8.95
2022-12-16T01:11:20.992Z,10.98
2022-12-16T01:13:52.220Z,7.95
2022-12-16T01:16:20.692Z,10.00
2022-12-16T01:18:49.262Z,7.65
2022-12-16T01:21:17.872Z,10.52
2022-12-16T01:23:47.672Z,7.10
2022-12-16T01:26:18.711Z,6.82
2022-12-16T01:28:49.194Z,7.43
2022-12-16T01:31:18.666Z,8.05
2022-12-16T01:33:47.114Z,6.13
2022-12-16T01:36:15.329Z,4.63
2022-12-16T01:38:44.779Z,5.50
2022-12-16T01:41:13.948Z,5.38
2022-12-16T01:43:44.257Z,4.47
2022-12-16T01:46:19.810Z,7.22
2022-12-16T01:48:51.499Z,6.25
2022-12-16T01:51:25.077Z,8.18
2022-12-16T01:56:48.898Z,5.25
2022-12-16T01:59:20.351Z,7.28
2022-12-16T02:01:48.194Z,6.20
2022-12-16T02:04:16.228Z,7.60
2022-12-16T02:06:44.024Z,6.10
2022-12-16T02:09:13.319Z,9.15
2022-12-16T02:15:20.378Z,5.95
2022-12-16T02:17:55.298Z,6.32
2022-12-16T02:20:54.227Z,6.90
2022-12-16T02:24:02.271Z,5.60
2022-12-16T02:30:08.831Z,3.83
2022-12-16T02:32:51.627Z,4.30
2022-12-16T02:35:28.577Z,4.82
2022-12-16T02:38:08.797Z,4.47
2022-12-16T02:40:42.237Z,6.32
2022-12-16T02:43:15.920Z,4.07
2022-12-16T02:45:48.847Z,5.13
2022-12-16T02:48:18.556Z,4.40
2022-12-16T02:50:49.717Z,4.70
2022-12-16T02:53:18.848Z,5.63
2022-12-16T02:56:01.177Z,4.05
2022-12-16T02:58:32.863Z,4.75
2022-12-16T03:04:06.977Z,2.72
2022-12-16T03:06:41.686Z,5.65
2022-12-16T03:09:15.787Z,5.32
2022-12-16T03:11:46.964Z,6.47
2022-12-16T03:14:17.467Z,3.58
2022-12-16T03:16:47.354Z,3.80
2022-12-16T03:19:19.720Z,10.60
2022-12-16T03:21:55.560Z,3.13
2022-12-16T03:24:24.267Z,4.57
2022-12-16T03:26:57.326Z,4.15
2022-12-16T03:29:35.066Z,2.90
2022-12-16T03:32:07.979Z,4.50
2022-12-16T03:37:34.086Z,6.97
2022-12-16T03:40:06.176Z,4.53
2022-12-16T03:42:35.409Z,6.25
2022-12-16T03:45:03.662Z,3.60
2022-12-16T03:47:31.444Z,5.13
2022-12-16T03:50:00.677Z,2.15
2022-12-16T03:55:13.527Z,9.68
2022-12-16T03:57:42.154Z,4.85
2022-12-16T04:00:11.905Z,8.52
2022-12-16T04:02:39.841Z,6.03
2022-12-16T04:05:09.778Z,3.65
2022-12-16T04:10:43.239Z,6.55
2022-12-16T04:13:30.235Z,4.43
2022-12-16T04:19:04.376Z,4.35
2022-12-16T04:21:52.105Z,2.60
2022-12-16T04:27:28.031Z,4.07
2022-12-16T04:30:15.306Z,4.82
2022-12-16T04:33:01.877Z,6.57
2022-12-16T04:35:48.645Z,3.55
2022-12-16T04:38:36.718Z,3.20
2022-12-16T04:44:28.125Z,2.92
2022-12-16T04:47:14.426Z,4.18
2022-12-16T04:50:00.719Z,4.47
2022-12-16T04:52:47.358Z,4.60
2022-12-16T04:55:35.495Z,2.60
2022-12-16T05:01:27.229Z,8.80
2022-12-16T05:07:00.037Z,1.80
2022-12-16T05:09:46.166Z,3.10
2022-12-16T05:12:34.305Z,5.05
2022-12-16T05:15:21.076Z,5.97
2022-12-16T05:20:53.795Z,4.13
2022-12-16T05:23:55.255Z,3.30
2022-12-16T05:26:41.577Z,2.28
2022-12-16T05:29:29.598Z,3.55
2022-12-16T05:35:20.216Z,1.40
2022-12-16T05:38:07.237Z,2.97
2022-12-16T05:40:53.663Z,3.88
2022-12-16T05:43:41.587Z,3.35
2022-12-16T05:46:29.708Z,4.53
2022-12-16T05:49:16.402Z,2.40
2022-12-16T05:52:02.573Z,4.37
2022-12-16T05:54:48.769Z,4.53
2022-12-16T05:57:35.094Z,2.72
2022-12-16T06:00:38.445Z,3.15
2022-12-16T06:03:26.702Z,2.63
2022-12-16T06:06:13.065Z,3.95
2022-12-16T06:09:09.844Z,2.95
2022-12-16T06:11:56.814Z,3.43
2022-12-16T06:14:43.136Z,3.75
2022-12-16T06:17:29.414Z,4.82
2022-12-16T06:20:17.308Z,4.47
2022-12-16T06:23:09.304Z,3.97
2022-12-16T06:25:55.474Z,4.68
2022-12-16T06:28:45.858Z,4.90
2022-12-16T06:31:32.834Z,4.45
2022-12-16T06:34:19.215Z,2.30
2022-12-16T06:37:07.394Z,3.95
2022-12-16T06:39:53.884Z,1.45
2022-12-16T06:42:40.265Z,2.25
2022-12-16T06:45:32.881Z,3.75
2022-12-16T06:48:20.813Z,3.80
2022-12-16T06:51:07.054Z,1.37
2022-12-16T06:53:54.964Z,2.27
2022-12-16T06:56:41.843Z,2.10
2022-12-16T06:59:28.624Z,4.72
2022-12-16T07:02:15.006Z,3.15
2022-12-16T07:05:01.387Z,4.18
2022-12-16T07:07:47.824Z,3.80
2022-12-16T07:10:35.492Z,2.35
2022-12-16T07:13:21.655Z,2.67
2022-12-16T07:16:07.980Z,3.22
2022-12-16T07:18:55.227Z,2.50
2022-12-16T07:21:41.784Z,7.28
2022-12-16T07:24:28.354Z,9.73
2022-12-16T07:27:16.524Z,10.27
2022-12-16T07:30:03.767Z,6.88
2022-12-16T07:32:50.874Z,6.32
2022-12-16T07:35:36.983Z,8.25
2022-12-16T07:38:23.133Z,10.70
2022-12-16T07:41:09.854Z,12.27
2022-12-16T07:43:58.702Z,12.50
2022-12-16T07:46:46.354Z,11.27
2022-12-16T07:49:33.310Z,12.38
2022-12-16T07:55:05.581Z,12.38
2022-12-16T07:57:51.863Z,9.07
2022-12-16T08:00:39.735Z,16.60
2022-12-16T08:03:26.137Z,10.55
2022-12-16T08:06:12.776Z,8.38
2022-12-16T08:08:59.966Z,8.45
2022-12-16T08:11:46.177Z,7.18
2022-12-16T08:14:32.409Z,7.28
2022-12-16T08:17:20.325Z,5.57
2022-12-16T08:20:08.177Z,6.35
2022-12-16T08:22:55.404Z,7.93
2022-12-16T08:25:41.623Z,5.17
2022-12-16T08:28:27.829Z,5.72
2022-12-16T08:31:14.232Z,6.93
2022-12-16T08:34:03.308Z,6.53
2022-12-16T08:36:49.761Z,5.75
2022-12-16T08:39:37.461Z,5.60
2022-12-16T08:42:24.340Z,8.13
2022-12-16T08:45:10.649Z,9.23
2022-12-16T08:47:56.952Z,7.95
2022-12-16T08:50:44.911Z,9.43
2022-12-16T08:53:32.426Z,10.70
2022-12-16T08:56:18.940Z,10.90
2022-12-16T08:59:05.342Z,9.83
2022-12-16T09:01:51.573Z,7.60
2022-12-16T09:04:37.740Z,9.43
2022-12-16T09:07:25.577Z,10.02
2022-12-16T09:10:11.823Z,11.35
2022-12-16T09:12:58.328Z,6.93
2022-12-16T09:15:52.253Z,13.55
2022-12-16T09:18:38.942Z,13.30
2022-12-16T09:21:30.201Z,12.02
2022-12-16T09:24:19.896Z,10.80
2022-12-16T09:27:06.068Z,11.25
2022-12-16T09:29:52.438Z,23.90
2022-12-16T09:32:40.214Z,13.60
2022-12-16T09:35:27.240Z,15.45
2022-12-16T09:38:13.879Z,16.30
2022-12-16T09:41:02.758Z,14.50
2022-12-16T09:44:13.140Z,14.68
2022-12-16T09:47:11.239Z,16.10
2022-12-16T09:50:05.498Z,11.13
2022-12-16T09:52:56.449Z,8.15
2022-12-16T09:55:45.238Z,18.48
2022-12-16T09:58:34.140Z,10.00
2022-12-16T10:01:21.150Z,10.25
2022-12-16T10:04:07.606Z,8.60
2022-12-16T10:06:59.543Z,8.98
2022-12-16T10:09:50.665Z,8.25
2022-12-16T10:12:48.580Z,8.18
2022-12-16T10:15:47.911Z,8.23
2022-12-16T10:18:55.564Z,26.23
2022-12-16T10:21:47.182Z,9.65
2022-12-16T10:24:46.286Z,9.32
2022-12-16T10:27:34.292Z,8.82
2022-12-16T10:30:22.048Z,7.55
2022-12-16T10:33:10.241Z,6.55
2022-12-16T10:36:01.356Z,7.10
2022-12-16T10:38:54.204Z,8.02
2022-12-16T10:41:45.185Z,7.03
2022-12-16T10:44:41.939Z,6.22
2022-12-16T10:47:30.325Z,6.83
2022-12-16T10:50:18.292Z,2.63
2022-12-16T10:53:11.180Z,4.45
2022-12-16T10:56:08.446Z,5.07
2022-12-16T10:59:05.394Z,9.07
2022-12-16T11:01:51.799Z,6.88
2022-12-16T11:04:49.127Z,8.23
2022-12-16T11:07:52.979Z,7.63
2022-12-16T11:10:49.251Z,13.77
2022-12-16T11:13:42.196Z,8.25
2022-12-16T11:16:40.350Z,7.28
2022-12-16T11:19:39.534Z,7.82
2022-12-16T11:22:43.092Z,6.28
2022-12-16T11:25:36.173Z,7.70
2022-12-16T11:28:23.906Z,6.47
2022-12-16T11:31:14.296Z,6.35
2022-12-16T11:34:02.765Z,4.72
2022-12-16T11:36:52.201Z,5.10
2022-12-16T11:39:42.384Z,5.00
2022-12-16T11:42:38.480Z,4.43
2022-12-16T11:45:31.283Z,9.15
2022-12-16T11:48:24.814Z,6.88
2022-12-16T11:51:16.143Z,8.23
2022-12-16T11:54:14.173Z,10.27
2022-12-16T11:57:07.284Z,9.88
2022-12-16T11:59:59.046Z,6.60
2022-12-16T12:02:51.892Z,7.43
2022-12-16T12:05:44.613Z,11.10
2022-12-16T12:08:40.074Z,10.57
2022-12-16T12:11:34.632Z,12.88
2022-12-16T12:14:31.952Z,9.50
2022-12-16T12:17:29.838Z,10.00
2022-12-16T12:20:29.288Z,7.63
2022-12-16T12:23:23.698Z,7.65
2022-12-16T12:26:15.399Z,5.13
2022-12-16T12:29:21.179Z,4.78
2022-12-16T12:32:18.737Z,7.20
2022-12-16T12:38:04.011Z,4.82
2022-12-16T12:41:05.817Z,4.05
2022-12-16T12:44:03.939Z,1.75
2022-12-16T12:46:58.429Z,3.45
2022-12-16T12:49:53.378Z,6.32
2022-12-16T12:53:01.959Z,6.35
2022-12-16T12:55:57.289Z,6.60
2022-12-16T12:58:45.019Z,5.55
2022-12-16T13:01:34.795Z,6.80
2022-12-16T13:04:28.961Z,6.43
2022-12-16T13:07:16.091Z,4.82
2022-12-16T13:12:52.060Z,3.28
2022-12-16T13:15:53.003Z,5.10
2022-12-16T13:18:45.590Z,5.32
2022-12-16T13:22:03.907Z,7.63
2022-12-16T13:25:08.178Z,5.18
2022-12-16T13:28:12.579Z,3.88
2022-12-16T13:30:59.750Z,4.78
2022-12-16T13:33:48.564Z,4.85
2022-12-16T13:36:40.054Z,3.67
2022-12-16T13:39:44.838Z,2.67
2022-12-16T13:43:10.824Z,2.80
2022-12-16T13:45:59.962Z,3.17
2022-12-16T13:49:04.120Z,2.95
2022-12-16T13:52:26.668Z,3.80
2022-12-16T13:55:33.553Z,4.20
2022-12-16T13:58:27.369Z,3.75
2022-12-16T14:01:18.301Z,2.22
2022-12-16T14:04:07.860Z,3.17
2022-12-16T14:06:55.925Z,3.50
2022-12-16T14:09:59.977Z,2.33
2022-12-16T14:13:04.865Z,5.85
2022-12-16T14:16:00.570Z,6.57
2022-12-16T14:18:57.155Z,3.00
2022-12-16T14:21:51.285Z,2.92
2022-12-16T14:24:43.584Z,5.93
2022-12-16T14:27:33.615Z,2.47
2022-12-16T14:30:21.275Z,3.92
2022-12-16T14:33:09.325Z,3.95
2022-12-16T14:35:55.815Z,5.72
2022-12-16T14:38:45.053Z,5.93
2022-12-16T14:41:33.015Z,9.93
2022-12-16T14:44:20.415Z,10.85
2022-12-16T14:47:10.096Z,9.48
2022-12-16T14:50:09.665Z,7.22
2022-12-16T14:52:59.756Z,7.30
2022-12-16T14:55:49.113Z,4.72
2022-12-16T14:58:37.625Z,3.67
2022-12-16T15:01:33.770Z,3.35
2022-12-16T15:04:24.285Z,6.55
2022-12-16T15:07:14.845Z,2.42
2022-12-16T15:10:03.778Z,1.92
2022-12-16T15:12:53.784Z,2.97
2022-12-16T15:15:49.866Z,5.43
2022-12-16T15:18:40.865Z,6.03
2022-12-16T15:21:27.954Z,18.13
2022-12-16T15:27:04.895Z,14.15
2022-12-16T15:29:53.700Z,6.82
2022-12-16T15:32:48.727Z,6.68
2022-12-16T15:35:50.599Z,5.75
2022-12-16T15:38:44.964Z,9.93
2022-12-16T15:41:41.549Z,5.95
2022-12-16T15:44:59.274Z,8.40
2022-12-16T15:47:53.054Z,9.83
2022-12-16T15:50:42.677Z,5.32
2022-12-16T15:53:47.258Z,6.72
2022-12-16T15:56:42.918Z,5.90
2022-12-16T15:59:43.137Z,6.82
2022-12-16T16:02:35.397Z,6.32
2022-12-16T16:05:28.991Z,10.73
2022-12-16T16:08:15.589Z,12.75
2022-12-16T16:11:03.194Z,8.38
2022-12-16T16:13:51.562Z,12.98
2022-12-16T16:16:38.442Z,5.60
2022-12-16T16:19:31.281Z,5.75
2022-12-16T16:22:17.741Z,3.92
2022-12-16T16:25:04.139Z,5.80
2022-12-16T16:27:50.860Z,7.30
2022-12-16T16:30:38.700Z,6.65
2022-12-16T16:33:25.130Z,4.65
2022-12-16T16:36:11.241Z,4.43
2022-12-16T16:39:01.161Z,4.35
2022-12-16T16:41:47.282Z,5.43
2022-12-16T16:44:33.553Z,3.75
2022-12-16T16:47:21.357Z,5.23
2022-12-16T16:50:07.497Z,5.30
2022-12-16T16:52:56.379Z,4.35
2022-12-16T16:55:43.785Z,5.40
2022-12-16T16:58:33.406Z,6.85
2022-12-16T17:01:19.857Z,4.88
2022-12-16T17:04:07.862Z,5.63
2022-12-16T17:06:53.931Z,3.88
2022-12-16T17:09:42.414Z,5.45
2022-12-16T17:12:37.703Z,8.07
2022-12-16T17:15:43.281Z,9.57
2022-12-16T17:18:29.957Z,11.13
2022-12-16T17:21:17.543Z,8.85
2022-12-16T17:24:03.957Z,10.40
2022-12-16T17:26:50.791Z,9.40
2022-12-16T17:29:57.595Z,8.27
2022-12-16T17:32:44.294Z,9.80
2022-12-16T17:35:31.201Z,9.13
2022-12-16T17:38:19.038Z,10.13
2022-12-16T17:41:12.353Z,17.52
2022-12-16T17:43:59.111Z,13.95
2022-12-16T17:46:45.890Z,9.52
2022-12-16T17:49:35.179Z,11.15
2022-12-16T17:52:21.866Z,10.03
2022-12-16T17:55:09.787Z,12.07
2022-12-16T17:57:56.099Z,10.27
2022-12-16T18:00:42.748Z,10.55
2022-12-16T18:03:29.675Z,10.35
2022-12-16T18:06:16.306Z,11.43
2022-12-16T18:09:02.832Z,10.88
2022-12-16T18:11:51.697Z,11.00
2022-12-16T18:14:38.259Z,10.65
2022-12-16T18:17:25.166Z,10.27
2022-12-16T18:20:11.532Z,10.32
2022-12-16T18:22:58.007Z,11.25
2022-12-16T18:25:46.036Z,11.10
2022-12-16T18:28:34.203Z,9.20
2022-12-16T18:31:23.809Z,9.52
2022-12-16T18:34:10.610Z,9.27
2022-12-16T18:36:57.520Z,9.02
2022-12-16T18:39:44.593Z,12.18
2022-12-16T18:45:18.907Z,21.48
2022-12-16T18:48:05.347Z,27.63
2022-12-16T18:50:51.825Z,17.70
2022-12-16T18:53:38.209Z,19.40
2022-12-16T18:56:26.678Z,17.85
2022-12-16T18:59:14.239Z,15.35
2022-12-16T19:02:02.222Z,13.20
2022-12-16T19:04:48.913Z,13.70
2022-12-16T19:07:35.410Z,11.45
2022-12-16T19:10:22.238Z,15.45
2022-12-16T19:13:09.007Z,17.55
2022-12-16T19:15:55.493Z,16.63
2022-12-16T19:18:43.974Z,18.88
2022-12-16T19:21:30.845Z,24.17
2022-12-16T19:24:17.167Z,25.70
2022-12-16T19:27:04.107Z,22.95
2022-12-16T19:29:50.524Z,21.50
2022-12-16T19:32:38.638Z,22.55
2022-12-16T19:35:27.474Z,26.05
2022-12-16T19:38:14.182Z,20.92
2022-12-16T19:41:09.841Z,23.95
2022-12-16T19:44:00.280Z,19.48
2022-12-16T19:46:51.869Z,15.80
2022-12-16T19:49:44.360Z,18.08
2022-12-16T19:52:32.876Z,15.25
2022-12-16T19:55:19.230Z,14.98
2022-12-16T19:58:06.090Z,15.80
2022-12-16T20:00:52.429Z,16.92
2022-12-16T20:03:40.572Z,11.75
2022-12-16T20:09:18.307Z,12.68
2022-12-16T20:12:04.876Z,14.95
2022-12-16T20:14:51.675Z,15.13
2022-12-16T20:17:38.175Z,16.33
2022-12-16T20:20:25.594Z,16.50
2022-12-16T20:23:14.386Z,15.43
2022-12-16T20:26:02.550Z,12.63
2022-12-16T20:28:48.954Z,13.35
2022-12-16T20:31:35.415Z,16.77
2022-12-16T20:34:21.716Z,13.52
2022-12-16T20:37:08.200Z,12.60
2022-12-16T20:43:04.142Z,20.63
2022-12-16T20:45:51.765Z,9.20
2022-12-16T20:48:38.719Z,9.30
2022-12-16T20:54:31.957Z,10.63
2022-12-16T20:57:18.260Z,11.75
2022-12-16T21:00:06.615Z,16.27
2022-12-16T21:02:53.465Z,12.38
2022-12-16T21:08:26.194Z,9.95
2022-12-16T21:11:16.051Z,11.70
2022-12-16T21:14:02.343Z,15.93
2022-12-16T21:16:50.417Z,15.00
2022-12-16T21:19:36.949Z,15.82
2022-12-16T21:22:23.360Z,14.43
2022-12-16T21:25:10.000Z,16.92
2022-12-16T21:27:56.491Z,18.38
2022-12-16T21:30:43.173Z,14.30
2022-12-16T21:33:37.489Z,15.10
2022-12-16T21:36:24.836Z,17.15
2022-12-16T21:41:57.063Z,18.15
2022-12-16T21:44:43.904Z,18.95
2022-12-16T21:47:30.590Z,17.00
2022-12-16T21:50:18.348Z,15.68
2022-12-16T21:53:06.644Z,14.43
2022-12-16T21:55:53.049Z,16.65
2022-12-16T21:58:40.053Z,14.13
2022-12-16T22:01:26.927Z,13.52
2022-12-16T22:04:13.430Z,12.98
2022-12-16T22:07:01.493Z,22.00
2022-12-16T22:09:47.781Z,16.30
2022-12-16T22:12:34.148Z,25.07
2022-12-16T22:15:20.790Z,24.17
2022-12-16T22:18:07.069Z,21.73
2022-12-16T22:20:54.911Z,19.40
2022-12-16T22:23:47.045Z,16.92
2022-12-16T22:26:33.259Z,14.93
2022-12-16T22:29:19.751Z,16.37
2022-12-16T22:32:05.910Z,17.50
2022-12-16T22:34:52.727Z,14.83
2022-12-16T22:37:39.960Z,13.07
2022-12-16T22:40:28.981Z,12.98
2022-12-16T22:43:15.299Z,17.25
2022-12-16T22:46:02.179Z,14.93
2022-12-16T22:48:48.768Z,12.00
2022-12-16T22:51:35.612Z,13.23
2022-12-16T22:54:22.402Z,13.88
2022-12-16T22:57:10.143Z,12.15
2022-12-16T22:59:58.423Z,14.50
2022-12-16T23:03:06.911Z,14.68
2022-12-16T23:05:55.056Z,16.25
2022-12-16T23:08:41.687Z,18.50
2022-12-16T23:11:37.848Z,18.42
2022-12-16T23:14:25.742Z,16.45
2022-12-16T23:17:12.016Z,15.10
2022-12-16T23:19:58.240Z,14.57
2022-12-16T23:22:44.699Z,15.73
2022-12-16T23:25:30.947Z,13.57
2022-12-16T23:28:17.298Z,12.30
2022-12-16T23:31:10.832Z,13.35
2022-12-16T23:33:57.203Z,11.68
2022-12-16T23:36:44.060Z,14.43
2022-12-16T23:39:31.019Z,11.43
2022-12-16T23:42:17.418Z,15.85
2022-12-16T23:45:03.929Z,15.38
2022-12-16T23:47:52.064Z,12.68
2022-12-16T23:50:38.540Z,13.40
2022-12-16T23:53:27.197Z,13.30
2022-12-16T23:56:14.948Z,13.80
2022-12-16T23:59:01.267Z,14.95
